Time;durP1;ratioP1;P1;durP2;ratioP2;P2;SDS_P1;SDS_P2;PMS_P1;PMS_P2;Temp;Humidity;BMP_temperature;BMP_pressure;BME280_temperature;BME280_humidity;BME280_pressure;Samples;Min_cycle;Max_cycle;Signal;HPM_P1;HPM_P2
2023/06/08 00:04:07;;;;;;;18.60;17.20;;;17.90;99.90;;;;;;2614855;54;20134;-74
2023/06/08 00:09:56;;;;;;;17.27;15.87;;;17.80;99.90;;;;;;2615090;54;20138;-74
2023/06/08 00:15:45;;;;;;;17.63;16.33;;;17.70;99.90;;;;;;2614965;54;20415;-74
2023/06/08 00:21:34;;;;;;;18.90;17.00;;;17.70;99.90;;;;;;2615273;54;20403;-74
2023/06/08 00:27:22;;;;;;;18.00;16.40;;;17.60;99.90;;;;;;2615005;54;20386;-74
2023/06/08 00:33:10;;;;;;;18.50;17.00;;;17.50;99.90;;;;;;2614931;46;20635;-73
2023/06/08 00:38:58;;;;;;;18.10;16.70;;;17.40;99.90;;;;;;2615035;54;20528;-73
2023/06/08 00:44:46;;;;;;;18.57;16.67;;;17.30;99.90;;;;;;2614739;54;20626;-73
2023/06/08 00:50:50;;;;;;;18.10;16.40;;;17.20;99.90;;;;;;2613596;54;20150;-73
2023/06/08 00:54:12;;;;;;;18.07;16.40;;;17.20;99.90;;;;;;2613658;54;20430;-72
2023/06/08 01:00:05;;;;;;;20.57;18.57;;;17.10;99.90;;;;;;2613502;54;20457;-73
2023/06/08 01:05:53;;;;;;;19.33;17.47;;;17.00;99.90;;;;;;2613573;54;20479;-74
2023/06/08 01:18:17;;;;;;;23.63;16.97;;;16.90;99.90;;;;;;2613157;54;20366;-72
2023/06/08 01:24:12;;;;;;;17.10;15.63;;;16.80;99.90;;;;;;2613587;54;20509;-73
2023/06/08 01:29:59;;;;;;;19.77;18.27;;;16.70;99.90;;;;;;2614269;54;20438;-73
2023/06/08 01:36:01;;;;;;;18.27;16.63;;;16.50;99.90;;;;;;2613978;54;20129;-73
2023/06/08 01:45:17;;;;;;;18.57;16.67;;;16.40;99.90;;;;;;2614558;39;20505;-73
2023/06/08 01:48:03;;;;;;;17.17;15.37;;;16.20;99.90;;;;;;2613479;54;20391;-74
2023/06/08 01:50:30;;;;;;;19.37;17.50;;;16.20;99.90;;;;;;2613999;47;20427;-73
2023/06/08 01:56:17;;;;;;;20.57;15.53;;;16.10;99.90;;;;;;2614191;54;20399;-72
2023/06/08 02:02:04;;;;;;;17.60;15.77;;;16.00;99.90;;;;;;2616193;39;20704;-73
2023/06/08 02:07:52;;;;;;;16.73;15.30;;;15.90;99.90;;;;;;2615436;54;20150;-73
2023/06/08 02:13:44;;;;;;;18.07;16.20;;;15.70;99.90;;;;;;2615188;54;20175;-70
2023/06/08 02:19:31;;;;;;;18.43;15.43;;;15.50;99.90;;;;;;2615540;54;20360;-69
2023/06/08 02:25:21;;;;;;;17.40;15.73;;;15.50;99.90;;;;;;2615268;54;20426;-70
2023/06/08 02:31:08;;;;;;;23.37;16.70;;;15.30;99.90;;;;;;2615391;54;20383;-73
2023/06/08 02:36:57;;;;;;;19.90;16.53;;;15.20;99.90;;;;;;2615360;54;20668;-74
2023/06/08 02:42:45;;;;;;;18.73;14.73;;;15.10;99.90;;;;;;2615705;39;20760;-73
2023/06/08 02:52:38;;;;;;;16.37;14.67;;;14.90;99.90;;;;;;2615059;54;20399;-74
2023/06/08 02:58:26;;;;;;;16.87;15.20;;;14.80;99.90;;;;;;2614941;54;20398;-73
2023/06/08 03:04:17;;;;;;;16.20;14.70;;;14.70;99.90;;;;;;2615068;54;20162;-70
2023/06/08 03:10:05;;;;;;;17.03;15.27;;;14.50;99.90;;;;;;2614326;54;20410;-70
2023/06/08 03:15:53;;;;;;;22.23;14.37;;;14.60;99.90;;;;;;2614595;54;20356;-70
2023/06/08 03:21:41;;;;;;;16.33;13.70;;;14.60;99.90;;;;;;2615089;54;20118;-70
2023/06/08 03:27:29;;;;;;;20.10;14.60;;;14.40;99.90;;;;;;2614435;54;20374;-69
2023/06/08 03:33:19;;;;;;;16.60;13.30;;;14.40;99.90;;;;;;2614775;54;20367;-69
2023/06/08 03:39:07;;;;;;;17.30;15.40;;;14.30;99.90;;;;;;2614900;54;20371;-69
2023/06/08 03:44:55;;;;;;;17.07;15.27;;;14.30;99.90;;;;;;2615367;39;20537;-69
2023/06/08 03:48:05;;;;;;;19.43;14.50;;;14.40;99.90;;;;;;2614558;54;20395;-69
2023/06/08 03:50:31;;;;;;;14.80;13.30;;;14.30;99.90;;;;;;2615312;54;20644;-69
2023/06/08 03:56:19;;;;;;;18.50;14.57;;;14.30;99.90;;;;;;2615552;54;20150;-70
2023/06/08 04:02:07;;;;;;;18.00;14.30;;;14.30;99.90;;;;;;2614765;54;20416;-70
2023/06/08 04:07:55;;;;;;;16.53;14.73;;;14.20;99.90;;;;;;2614506;54;20129;-70
2023/06/08 04:13:42;;;;;;;16.30;14.47;;;14.20;99.90;;;;;;2614580;54;20387;-70
2023/06/08 04:19:30;;;;;;;20.47;15.90;;;14.20;99.90;;;;;;2614778;54;20251;-70
2023/06/08 04:25:17;;;;;;;17.53;14.37;;;14.20;99.90;;;;;;2614967;54;20676;-70
2023/06/08 04:31:05;;;;;;;24.10;16.20;;;14.40;99.90;;;;;;2614828;54;20162;-69
2023/06/08 04:36:53;;;;;;;18.90;16.50;;;14.50;99.90;;;;;;2614902;54;20150;-70
2023/06/08 04:42:41;;;;;;;22.27;17.30;;;14.60;99.90;;;;;;2615234;39;20771;-69
2023/06/08 04:52:40;;;;;;;18.13;16.23;;;14.70;99.90;;;;;;2615034;39;20611;-70
2023/06/08 04:58:29;;;;;;;18.80;16.80;;;14.70;99.90;;;;;;2614848;54;20403;-70
2023/06/08 05:04:16;;;;;;;22.53;17.00;;;14.90;99.90;;;;;;2614856;54;20471;-70
2023/06/08 05:10:04;;;;;;;24.20;17.00;;;14.90;99.90;;;;;;2615160;54;20130;-70
2023/06/08 05:15:54;;;;;;;19.20;17.10;;;14.90;99.90;;;;;;2614704;54;20407;-69
2023/06/08 05:21:41;;;;;;;20.97;16.87;;;15.10;99.90;;;;;;2614726;54;20467;-70
2023/06/08 05:27:29;;;;;;;19.10;16.37;;;15.20;99.90;;;;;;2614683;54;20122;-70
2023/06/08 05:33:17;;;;;;;18.10;16.40;;;15.10;99.90;;;;;;2614553;54;20235;-70
2023/06/08 05:39:05;;;;;;;18.83;16.90;;;15.20;99.90;;;;;;2614795;39;20730;-70
2023/06/08 05:44:53;;;;;;;17.67;16.03;;;15.20;99.90;;;;;;2614994;39;21196;-70
2023/06/08 05:48:05;;;;;;;18.80;16.97;;;15.20;99.90;;;;;;2614282;54;20396;-69
2023/06/08 05:50:31;;;;;;;22.37;16.07;;;15.20;99.90;;;;;;2614269;54;20302;-71
2023/06/08 05:56:18;;;;;;;17.73;16.33;;;15.40;99.90;;;;;;2614183;54;20180;-70
2023/06/08 06:02:06;;;;;;;19.77;17.23;;;15.60;99.90;;;;;;2614441;54;20126;-70
2023/06/08 06:07:54;;;;;;;20.70;16.20;;;15.80;99.90;;;;;;2614260;54;20263;-70
2023/06/08 06:13:42;;;;;;;18.47;16.67;;;16.10;99.90;;;;;;2615244;54;20127;-70
2023/06/08 06:19:33;;;;;;;20.17;16.67;;;16.50;99.90;;;;;;2615163;54;20122;-70
2023/06/08 06:25:21;;;;;;;18.33;16.40;;;18.00;99.90;;;;;;2615497;54;20443;-70
2023/06/08 06:31:09;;;;;;;17.83;16.23;;;18.60;99.90;;;;;;2615199;54;20419;-69
2023/06/08 06:36:57;;;;;;;24.03;17.50;;;19.40;99.90;;;;;;2615606;54;20226;-70
2023/06/08 06:42:44;;;;;;;19.17;17.67;;;19.70;99.90;;;;;;2614931;54;20652;-70
2023/06/08 06:52:37;;;;;;;18.80;17.20;;;20.00;99.90;;;;;;2615403;54;20391;-70
2023/06/08 06:58:26;;;;;;;19.13;17.47;;;19.50;99.90;;;;;;2614380;54;20508;-69
2023/06/08 07:04:15;;;;;;;20.37;18.30;;;19.70;99.90;;;;;;2614421;54;20403;-69
2023/06/08 07:10:03;;;;;;;19.03;17.53;;;20.30;99.90;;;;;;2615070;54;20387;-69
2023/06/08 07:15:51;;;;;;;21.17;19.33;;;21.50;99.90;;;;;;2614895;54;20938;-70
2023/06/08 07:21:40;;;;;;;21.70;19.73;;;21.50;99.90;;;;;;2615036;54;20118;-69
2023/06/08 07:27:27;;;;;;;20.10;18.70;;;22.10;99.90;;;;;;2615478;39;20747;-69
2023/06/08 07:33:15;;;;;;;23.43;21.23;;;21.90;99.90;;;;;;2615150;54;20111;-69
2023/06/08 07:39:03;;;;;;;20.50;18.70;;;20.90;99.90;;;;;;2615765;39;20531;-69
2023/06/08 07:44:51;;;;;;;21.20;19.47;;;19.80;99.90;;;;;;2615418;54;20431;-69
2023/06/08 07:48:06;;;;;;;19.93;18.27;;;20.40;99.90;;;;;;2614848;54;20404;-70
2023/06/08 07:50:32;;;;;;;20.90;19.10;;;20.30;99.90;;;;;;2614959;54;20166;-69
2023/06/08 07:56:19;;;;;;;21.10;18.97;;;20.10;99.90;;;;;;2615300;39;20502;-69
2023/06/08 08:02:09;;;;;;;21.30;19.60;;;21.30;99.90;;;;;;2614968;46;20146;-69
2023/06/08 08:07:57;;;;;;;21.10;19.40;;;20.70;99.90;;;;;;2614334;54;20407;-69
2023/06/08 08:13:44;;;;;;;21.93;20.23;;;20.50;99.90;;;;;;2615098;46;20584;-69
2023/06/08 08:19:31;;;;;;;19.97;18.03;;;20.70;99.90;;;;;;2614980;54;20226;-70
2023/06/08 08:25:19;;;;;;;22.67;20.40;;;21.90;99.90;;;;;;2614821;54;20178;-69
2023/06/08 08:31:07;;;;;;;22.17;19.13;;;22.20;95.50;;;;;;2614633;54;20153;-70
2023/06/08 08:36:55;;;;;;;19.97;17.93;;;22.50;89.90;;;;;;2614784;54;20282;-71
2023/06/08 08:42:52;;;;;;;20.80;18.90;;;22.40;91.70;;;;;;2614761;39;20236;-69
2023/06/08 08:52:40;;;;;;;21.03;18.97;;;23.00;73.00;;;;;;2615125;54;20421;-69
2023/06/08 08:58:27;;;;;;;20.97;19.00;;;23.40;83.00;;;;;;2614607;54;20431;-70
2023/06/08 09:04:16;;;;;;;20.97;19.17;;;24.20;58.90;;;;;;2614848;54;20649;-70
2023/06/08 09:10:20;;;;;;;20.93;18.77;;;24.90;59.40;;;;;;2614846;54;21044;-69
2023/06/08 09:16:14;;;;;;;20.73;18.80;;;25.40;45.30;;;;;;2614770;39;20739;-71
2023/06/08 09:22:02;;;;;;;21.57;19.83;;;24.90;46.70;;;;;;2614701;54;20980;-69
2023/06/08 09:27:52;;;;;;;21.07;19.37;;;25.60;40.00;;;;;;2614868;54;20114;-70
2023/06/08 09:33:39;;;;;;;20.20;18.53;;;25.00;36.30;;;;;;2614730;54;20378;-69
2023/06/08 09:46:02;;;;;;;20.83;19.27;;;25.80;37.10;;;;;;2615123;54;20394;-69
2023/06/08 09:51:52;;;;;;;20.83;19.00;;;25.80;31.00;;;;;;2615517;54;20121;-70
2023/06/08 09:57:40;;;;;;;20.17;18.57;;;25.70;33.40;;;;;;2615978;54;20402;-70
2023/06/08 10:14:27;;;;;;;20.37;18.70;;;26.90;25.10;;;;;;2615738;39;20746;-71
2023/06/08 10:20:16;;;;;;;22.03;20.23;;;27.30;24.90;;;;;;2614597;54;20426;-70
2023/06/08 10:26:04;;;;;;;19.17;17.77;;;26.70;28.90;;;;;;2615244;54;20380;-70
2023/06/08 10:31:52;;;;;;;21.73;19.90;;;27.70;26.40;;;;;;2615237;54;20362;-70
2023/06/08 10:37:44;;;;;;;21.50;19.40;;;27.00;28.00;;;;;;2615624;54;20215;-72
2023/06/08 10:43:32;;;;;;;19.50;17.97;;;27.40;25.30;;;;;;2615700;39;20747;-72
2023/06/08 10:46:35;;;;;;;21.70;19.67;;;27.50;23.10;;;;;;2615566;54;20418;-72
2023/06/08 10:52:45;;;;;;;21.57;19.87;;;26.90;26.40;;;;;;2615465;54;21076;-71
2023/06/08 11:05:15;;;;;;;19.93;18.23;;;28.00;23.30;;;;;;2615212;54;20431;-72
2023/06/08 11:11:03;;;;;;;19.53;18.03;;;28.40;20.20;;;;;;2615373;54;20418;-72
2023/06/08 11:16:52;;;;;;;19.10;17.80;;;28.10;20.70;;;;;;2614815;54;20363;-71
2023/06/08 11:22:40;;;;;;;21.63;19.97;;;28.40;19.90;;;;;;2614985;54;20407;-72
2023/06/08 11:28:28;;;;;;;20.13;18.70;;;27.50;20.30;;;;;;2614991;54;20657;-71
2023/06/08 11:34:17;;;;;;;19.77;18.17;;;27.90;20.00;;;;;;2615419;54;20126;-71
2023/06/08 11:40:10;;;;;;;23.70;21.73;;;28.70;17.90;;;;;;2615645;54;20403;-71
2023/06/08 11:45:58;;;;;;;19.40;17.90;;;29.00;17.80;;;;;;2615225;54;20395;-71
2023/06/08 11:55:12;;;;;;;20.43;18.90;;;27.30;19.70;;;;;;2615346;54;20551;-70
2023/06/08 12:04:27;;;;;;;18.87;17.47;;;28.00;18.30;;;;;;2615289;54;20391;-71
2023/06/08 12:06:53;;;;;;;18.77;17.30;;;28.20;18.30;;;;;;2615091;54;21016;-71
2023/06/08 12:12:41;;;;;;;18.67;17.37;;;28.70;14.30;;;;;;2615333;54;20363;-72
2023/06/08 12:24:43;;;;;;;19.10;17.90;;;28.90;13.80;;;;;;2615677;54;20362;-72
2023/06/08 12:30:31;;;;;;;18.37;17.07;;;27.70;16.50;;;;;;2614986;54;20146;-71
2023/06/08 12:36:19;;;;;;;18.27;16.93;;;28.90;15.50;;;;;;2615341;39;20509;-71
2023/06/08 12:42:07;;;;;;;19.30;17.70;;;28.80;14.70;;;;;;2615028;54;20123;-71
2023/06/08 12:47:55;;;;;;;18.53;17.03;;;28.80;13.90;;;;;;2614785;54;20395;-71
2023/06/08 12:50:38;;;;;;;17.03;15.83;;;28.30;12.00;;;;;;2615244;39;20768;-71
2023/06/08 12:53:04;;;;;;;17.30;15.93;;;28.50;13.20;;;;;;2613980;54;20170;-71
2023/06/08 12:58:53;;;;;;;18.30;17.00;;;28.70;13.70;;;;;;2615248;54;20439;-71
2023/06/08 13:04:40;;;;;;;17.63;16.20;;;29.30;10.70;;;;;;2614725;54;20383;-71
2023/06/08 13:10:28;;;;;;;19.30;17.80;;;29.30;10.10;;;;;;2615206;54;20126;-71
2023/06/08 13:16:15;;;;;;;18.53;17.03;;;28.20;11.20;;;;;;2614903;54;20151;-71
2023/06/08 13:22:05;;;;;;;18.07;16.77;;;28.80;12.20;;;;;;2616037;54;20154;-73
2023/06/08 13:27:53;;;;;;;17.90;16.57;;;29.10;10.50;;;;;;2615511;54;20409;-71
2023/06/08 13:33:41;;;;;;;16.97;15.57;;;28.80;11.40;;;;;;2615549;54;20154;-71
2023/06/08 13:39:29;;;;;;;17.00;15.80;;;28.40;12.00;;;;;;2615587;54;20620;-71
2023/06/08 13:45:18;;;;;;;17.97;16.60;;;28.80;10.40;;;;;;2615372;54;20162;-71
2023/06/08 13:55:08;;;;;;;18.83;17.23;;;29.10;10.10;;;;;;2615629;39;20764;-71
2023/06/08 14:00:55;;;;;;;17.60;16.40;;;29.50;10.00;;;;;;2615745;54;20403;-71
2023/06/08 14:06:44;;;;;;;17.00;16.10;;;28.80;8.50;;;;;;2615579;54;20172;-72
2023/06/08 14:12:31;;;;;;;17.57;16.37;;;28.20;11.00;;;;;;2615381;54;20414;-72
2023/06/08 14:18:19;;;;;;;16.70;15.60;;;30.10;5.40;;;;;;2614850;54;20123;-71
2023/06/08 14:24:08;;;;;;;17.50;16.30;;;29.70;6.00;;;;;;2615086;54;20649;-72
2023/06/08 14:29:56;;;;;;;16.07;15.17;;;29.30;7.40;;;;;;2615495;39;21076;-72
2023/06/08 14:35:44;;;;;;;16.87;15.73;;;28.90;6.10;;;;;;2614881;54;20150;-72
2023/06/08 14:41:32;;;;;;;23.53;16.90;;;27.90;9.80;;;;;;2615319;54;20407;-72
2023/06/08 14:47:20;;;;;;;17.07;15.77;;;29.40;8.60;;;;;;2615605;54;20123;-71
2023/06/08 14:50:37;;;;;;;17.37;16.17;;;28.40;8.60;;;;;;2614442;54;20422;-71
2023/06/08 14:53:02;;;;;;;16.67;15.50;;;28.60;10.90;;;;;;2615268;54;20181;-71
2023/06/08 14:58:50;;;;;;;16.83;15.80;;;28.50;11.00;;;;;;2615157;54;20150;-72
2023/06/08 15:04:37;;;;;;;17.77;16.10;;;27.90;9.80;;;;;;2615537;54;20118;-71
2023/06/08 15:10:25;;;;;;;17.03;15.83;;;28.70;9.00;;;;;;2615492;54;20322;-71
2023/06/08 15:16:13;;;;;;;17.30;16.20;;;29.10;8.40;;;;;;2615203;54;20138;-71
2023/06/08 15:22:00;;;;;;;16.97;15.50;;;27.80;10.20;;;;;;2615503;39;20525;-71
2023/06/08 15:27:48;;;;;;;16.47;15.37;;;28.60;8.70;;;;;;2614807;54;20138;-71
2023/06/08 15:33:36;;;;;;;15.93;14.77;;;28.40;6.10;;;;;;2615403;47;20683;-71
2023/06/08 15:39:23;;;;;;;16.00;14.90;;;28.80;4.70;;;;;;2614939;54;20150;-70
2023/06/08 15:45:12;;;;;;;14.67;13.80;;;28.50;3.00;;;;;;2615253;54;20174;-71
2023/06/08 15:55:05;;;;;;;14.60;13.90;;;28.60;1.00;;;;;;2615182;54;20446;-70
2023/06/08 16:00:54;;;;;;;15.87;14.77;;;28.40;1.00;;;;;;2615333;54;20508;-70
2023/06/08 16:06:42;;;;;;;14.20;13.40;;;28.60;1.00;;;;;;2615088;54;20399;-70
2023/06/08 16:12:30;;;;;;;15.43;14.63;;;29.00;1.00;;;;;;2615072;54;20411;-70
2023/06/08 16:18:18;;;;;;;15.70;14.70;;;29.10;1.00;;;;;;2614925;54;20115;-70
2023/06/08 16:27:59;;;;;;;18.37;17.37;;;28.80;1.00;;;;;;2615451;54;20438;-70
2023/06/08 16:30:26;;;;;;;15.83;14.93;;;28.50;1.00;;;;;;2614858;54;20386;-70
2023/06/08 16:36:14;;;;;;;16.37;15.50;;;28.10;1.00;;;;;;2614940;54;20378;-70
2023/06/08 16:42:02;;;;;;;17.07;16.03;;;27.90;1.90;;;;;;2614827;54;20126;-70
2023/06/08 16:47:51;;;;;;;16.73;15.83;;;27.50;1.00;;;;;;2614762;54;20363;-70
2023/06/08 16:50:38;;;;;;;16.90;16.00;;;27.70;1.00;;;;;;2614407;39;20821;-69
2023/06/08 16:53:04;;;;;;;17.30;16.40;;;27.10;1.00;;;;;;2615220;54;20399;-69
2023/06/08 16:58:53;;;;;;;16.50;15.70;;;27.40;1.20;;;;;;2615930;39;20546;-70
2023/06/08 17:04:41;;;;;;;16.30;15.40;;;27.20;1.10;;;;;;2615236;54;20387;-69
2023/06/08 17:10:29;;;;;;;17.10;16.10;;;26.80;2.20;;;;;;2614690;54;20114;-70
2023/06/08 17:16:16;;;;;;;18.60;17.50;;;26.70;4.00;;;;;;2614875;54;20126;-71
2023/06/08 17:22:05;;;;;;;18.57;17.50;;;26.70;5.60;;;;;;2614986;54;20246;-70
2023/06/08 17:27:54;;;;;;;18.40;17.30;;;26.60;7.80;;;;;;2615171;39;20772;-69
2023/06/08 17:33:42;;;;;;;17.97;16.90;;;26.50;7.70;;;;;;2615184;39;21071;-70
2023/06/08 17:39:30;;;;;;;17.27;16.30;;;26.10;6.70;;;;;;2615210;39;20717;-70
2023/06/08 17:45:18;;;;;;;17.87;16.77;;;25.90;7.40;;;;;;2614568;54;20129;-70
2023/06/08 17:55:07;;;;;;;19.00;17.57;;;25.70;7.90;;;;;;2613829;54;20411;-70
2023/06/08 18:00:55;;;;;;;21.47;20.37;;;25.60;9.10;;;;;;2614231;54;20953;-74
2023/06/08 18:06:42;;;;;;;20.50;19.40;;;25.40;10.10;;;;;;2614627;39;20619;-74
2023/06/08 18:12:31;;;;;;;21.10;20.03;;;25.40;9.80;;;;;;2615397;54;20180;-74
2023/06/08 18:18:18;;;;;;;22.30;21.10;;;25.20;10.50;;;;;;2615168;54;20378;-74
2023/06/08 18:24:06;;;;;;;20.70;19.60;;;25.00;10.90;;;;;;2615346;54;20162;-74
2023/06/08 18:29:54;;;;;;;21.23;20.13;;;25.00;11.70;;;;;;2615292;54;20170;-73
2023/06/08 18:35:42;;;;;;;21.20;20.10;;;24.90;12.40;;;;;;2615363;54;20222;-74
2023/06/08 18:41:29;;;;;;;22.53;21.30;;;24.80;14.10;;;;;;2615112;54;20679;-73
2023/06/08 18:47:17;;;;;;;22.33;21.13;;;24.80;13.70;;;;;;2615740;39;20528;-75
2023/06/08 18:50:37;;;;;;;21.63;20.53;;;24.70;14.20;;;;;;2615317;54;20408;-74
2023/06/08 18:53:03;;;;;;;21.50;20.20;;;24.60;15.20;;;;;;2615062;54;20158;-74
2023/06/08 18:58:51;;;;;;;22.30;21.00;;;24.40;18.70;;;;;;2615209;54;20134;-74
2023/06/08 19:04:38;;;;;;;22.67;21.37;;;24.20;21.60;;;;;;2615308;54;20158;-75
2023/06/08 19:10:26;;;;;;;23.13;21.33;;;24.10;23.40;;;;;;2614750;54;20139;-74
2023/06/08 19:16:14;;;;;;;22.70;20.80;;;23.80;25.20;;;;;;2615168;46;20154;-74
2023/06/08 19:22:02;;;;;;;21.90;20.07;;;23.80;26.10;;;;;;2615190;54;20395;-74
2023/06/08 19:27:50;;;;;;;21.23;20.03;;;23.50;29.70;;;;;;2615043;54;20395;-74
2023/06/08 19:33:38;;;;;;;21.33;20.03;;;23.30;37.60;;;;;;2614608;54;20149;-74
2023/06/08 19:39:27;;;;;;;20.63;19.33;;;23.20;38.20;;;;;;2615185;54;20138;-75
2023/06/08 19:45:14;;;;;;;21.80;20.60;;;22.90;44.20;;;;;;2615032;39;20812;-75
2023/06/08 19:55:08;;;;;;;21.83;20.13;;;22.70;50.00;;;;;;2615033;54;20443;-75
2023/06/08 20:00:56;;;;;;;21.73;20.47;;;22.50;55.30;;;;;;2614814;54;20411;-74
2023/06/08 20:06:46;;;;;;;21.60;20.30;;;22.20;73.70;;;;;;2615422;39;20541;-74
2023/06/08 20:12:33;;;;;;;22.17;20.63;;;22.20;68.50;;;;;;2614993;54;20402;-74
2023/06/08 20:18:21;;;;;;;22.03;20.80;;;22.10;66.50;;;;;;2614697;54;20158;-74
2023/06/08 20:24:10;;;;;;;20.67;19.57;;;21.90;64.50;;;;;;2614867;54;20162;-75
2023/06/08 20:29:57;;;;;;;20.87;19.63;;;21.90;59.70;;;;;;2614792;54;20419;-75
2023/06/08 20:35:45;;;;;;;21.13;20.03;;;21.80;62.10;;;;;;2615585;39;20546;-74
2023/06/08 20:41:33;;;;;;;21.10;19.80;;;21.60;71.50;;;;;;2615217;54;20708;-74
2023/06/08 20:47:20;;;;;;;21.03;19.80;;;21.60;76.70;;;;;;2614854;54;20121;-74
2023/06/08 20:50:40;;;;;;;22.07;20.47;;;21.50;78.70;;;;;;2614000;54;20415;-74
2023/06/08 20:53:05;;;;;;;20.73;19.47;;;21.40;81.20;;;;;;2614211;53;20705;-74
2023/06/08 20:58:53;;;;;;;20.10;18.87;;;21.20;93.00;;;;;;2614821;54;20133;-74
2023/06/08 21:04:41;;;;;;;21.57;19.90;;;21.00;96.50;;;;;;2614998;54;20126;-74
2023/06/08 21:10:28;;;;;;;20.40;19.03;;;20.90;99.90;;;;;;2614815;54;20419;-74
2023/06/08 21:16:16;;;;;;;20.60;19.30;;;20.60;99.90;;;;;;2615126;46;20162;-74
2023/06/08 21:22:04;;;;;;;22.17;20.10;;;20.50;99.90;;;;;;2614954;54;20194;-75
2023/06/08 21:27:52;;;;;;;21.43;19.70;;;20.60;99.90;;;;;;2614510;54;20941;-73
2023/06/08 21:33:41;;;;;;;21.00;19.60;;;20.40;99.90;;;;;;2614813;54;20139;-74
2023/06/08 21:39:28;;;;;;;19.93;18.73;;;20.10;99.90;;;;;;2614806;54;20395;-74
2023/06/08 21:45:17;;;;;;;20.97;19.57;;;20.10;99.90;;;;;;2615847;54;20130;-73
2023/06/08 21:55:10;;;;;;;20.40;19.20;;;20.10;99.90;;;;;;2615157;54;20419;-74
2023/06/08 22:00:57;;;;;;;21.33;19.70;;;20.10;99.90;;;;;;2615054;39;20813;-75
2023/06/08 22:06:46;;;;;;;20.23;19.00;;;20.00;99.90;;;;;;2615557;54;20683;-74
2023/06/08 22:12:33;;;;;;;21.00;19.50;;;19.70;99.90;;;;;;2615915;54;20391;-75
2023/06/08 22:18:21;;;;;;;20.33;19.03;;;19.60;99.90;;;;;;2615236;54;20134;-75
2023/06/08 22:24:09;;;;;;;21.13;19.43;;;19.50;99.90;;;;;;2615416;54;20130;-75
2023/06/08 22:27:12;;;;;;;21.83;20.27;;;19.40;99.90;;;;;;2614890;54;20506;-74
2023/06/08 22:29:38;;;;;;;20.40;19.23;;;19.30;99.90;;;;;;2614817;47;20657;-75
2023/06/08 22:35:26;;;;;;;21.53;20.10;;;19.20;99.90;;;;;;2615527;54;20255;-74
2023/06/08 22:41:13;;;;;;;19.93;18.83;;;19.10;99.90;;;;;;2615385;54;20283;-74
2023/06/08 22:47:01;;;;;;;20.57;19.33;;;19.00;99.90;;;;;;2615220;54;20146;-73
2023/06/08 22:52:48;;;;;;;22.60;20.60;;;19.00;99.90;;;;;;2615123;54;20177;-74
2023/06/08 22:58:36;;;;;;;20.77;19.50;;;19.10;99.90;;;;;;2615323;54;20146;-75
2023/06/08 23:04:24;;;;;;;22.20;20.10;;;19.10;99.90;;;;;;2615383;54;20143;-75
2023/06/08 23:10:20;;;;;;;50.87;22.10;;;19.00;99.90;;;;;;2615236;54;20134;-74
2023/06/08 23:16:08;;;;;;;22.10;20.50;;;19.00;99.90;;;;;;2615282;54;20443;-73
2023/06/08 23:21:55;;;;;;;21.70;20.40;;;19.00;99.90;;;;;;2615271;54;20126;-74
2023/06/08 23:27:44;;;;;;;20.73;19.27;;;18.70;99.90;;;;;;2615340;54;20158;-74
2023/06/08 23:33:32;;;;;;;22.40;20.50;;;18.70;99.90;;;;;;2614983;54;20422;-74
2023/06/08 23:39:20;;;;;;;21.73;20.30;;;18.50;99.90;;;;;;2615332;54;20127;-74
2023/06/08 23:45:09;;;;;;;22.20;20.37;;;18.50;99.90;;;;;;2615495;54;20130;-74
